createdAt,value
2022-08-17T00:01:31.363Z,43.75
2022-08-17T00:04:11.928Z,43.55
2022-08-17T00:06:39.719Z,43.46
2022-08-17T00:09:07.386Z,43.22
2022-08-17T00:11:35.217Z,43.47
2022-08-17T00:14:02.894Z,43.41
2022-08-17T00:16:56.264Z,43.39
2022-08-17T00:19:21.655Z,43.67
2022-08-17T00:22:30.964Z,43.31
2022-08-17T00:24:37.162Z,43.05
2022-08-17T00:27:04.888Z,43.47
2022-08-17T00:29:32.597Z,43.46
2022-08-17T00:32:00.442Z,43.31
2022-08-17T00:34:48.083Z,43.49
2022-08-17T00:37:15.809Z,43.48
2022-08-17T00:42:46.498Z,43.42
2022-08-17T00:45:14.331Z,43.45
2022-08-17T00:47:42.030Z,43.37
2022-08-17T00:50:09.718Z,43.43
2022-08-17T00:52:37.515Z,43.33
2022-08-17T00:55:05.241Z,43.43
2022-08-17T00:57:32.969Z,43.46
2022-08-17T01:00:03.173Z,43.41
2022-08-17T01:02:34.218Z,43.39
2022-08-17T01:05:02.909Z,43.54
2022-08-17T01:07:31.142Z,43.35
2022-08-17T01:09:58.849Z,43.56
2022-08-17T01:12:26.620Z,43.47
2022-08-17T01:14:54.466Z,43.50
2022-08-17T01:17:22.185Z,43.59
2022-08-17T01:19:49.967Z,43.41
2022-08-17T01:22:17.862Z,43.27
2022-08-17T01:24:45.850Z,43.50
2022-08-17T01:27:13.775Z,43.61
2022-08-17T01:29:41.742Z,43.23
2022-08-17T01:32:09.453Z,43.08
2022-08-17T01:34:42.578Z,43.44
2022-08-17T01:37:11.579Z,43.49
2022-08-17T01:39:39.379Z,43.41
2022-08-17T01:42:07.163Z,43.32
2022-08-17T01:44:34.891Z,43.42
2022-08-17T01:47:06.219Z,43.40
2022-08-17T01:49:34.148Z,43.27
2022-08-17T01:52:02.558Z,43.52
2022-08-17T01:54:30.232Z,43.30
2022-08-17T01:56:57.932Z,43.35
2022-08-17T01:59:25.762Z,43.42
2022-08-17T02:01:53.581Z,43.42
2022-08-17T02:04:21.416Z,43.50
2022-08-17T02:06:53.450Z,43.34
2022-08-17T02:09:25.172Z,43.34
2022-08-17T02:11:54.049Z,43.30
2022-08-17T02:14:21.937Z,43.53
2022-08-17T02:16:49.754Z,43.25
2022-08-17T02:19:17.601Z,43.26
2022-08-17T02:21:45.352Z,43.37
2022-08-17T02:24:13.068Z,43.31
2022-08-17T02:26:40.878Z,43.39
2022-08-17T02:29:08.568Z,43.26
2022-08-17T02:31:36.297Z,43.34
2022-08-17T02:34:05.353Z,43.22
2022-08-17T02:36:33.217Z,43.23
2022-08-17T02:39:01.579Z,43.34
2022-08-17T02:41:29.397Z,43.39
2022-08-17T02:43:57.262Z,43.27
2022-08-17T02:46:25.035Z,43.40
2022-08-17T02:48:52.786Z,43.25
2022-08-17T02:51:20.692Z,43.10
2022-08-17T02:53:48.434Z,43.40
2022-08-17T02:56:16.258Z,43.41
2022-08-17T02:58:44.173Z,43.49
2022-08-17T03:01:12.796Z,43.31
2022-08-17T03:03:40.597Z,43.61
2022-08-17T03:06:08.697Z,43.23
2022-08-17T03:08:36.444Z,43.38
2022-08-17T03:11:04.163Z,43.42
2022-08-17T03:13:31.995Z,43.53
2022-08-17T03:15:59.847Z,43.43
2022-08-17T03:18:28.066Z,43.33
2022-08-17T03:20:55.861Z,43.37
2022-08-17T03:23:24.239Z,43.40
2022-08-17T03:25:53.770Z,43.44
2022-08-17T03:28:21.853Z,43.37
2022-08-17T03:30:49.640Z,43.54
2022-08-17T03:33:17.363Z,43.43
2022-08-17T03:35:45.101Z,43.48
2022-08-17T03:38:12.819Z,43.08
2022-08-17T03:40:56.853Z,43.27
2022-08-17T03:43:27.442Z,43.39
2022-08-17T03:46:28.581Z,43.49
2022-08-17T03:49:18.008Z,43.47
2022-08-17T03:52:03.403Z,43.34
2022-08-17T03:54:48.544Z,43.41
2022-08-17T03:57:16.499Z,43.52
2022-08-17T03:59:45.134Z,43.50
2022-08-17T04:02:13.038Z,43.42
2022-08-17T04:04:40.804Z,43.47
2022-08-17T04:07:08.517Z,43.48
2022-08-17T04:09:36.544Z,43.27
2022-08-17T04:12:04.819Z,43.34
2022-08-17T04:14:49.480Z,43.50
2022-08-17T04:17:21.579Z,43.30
2022-08-17T04:19:49.433Z,43.33
2022-08-17T04:22:30.333Z,43.34
2022-08-17T04:25:01.315Z,43.40
2022-08-17T04:27:29.010Z,43.42
2022-08-17T04:29:56.752Z,43.21
2022-08-17T04:33:02.921Z,43.00
2022-08-17T04:35:12.252Z,43.67
2022-08-17T04:37:39.974Z,43.58
2022-08-17T04:40:25.926Z,43.75
2022-08-17T04:43:00.830Z,43.86
2022-08-17T04:45:32.079Z,44.11
2022-08-17T04:48:00.209Z,44.10
2022-08-17T04:50:28.019Z,44.18
2022-08-17T04:52:56.042Z,44.13
2022-08-17T04:55:24.072Z,44.23
2022-08-17T04:57:51.917Z,44.18
2022-08-17T05:00:19.666Z,44.03
2022-08-17T05:02:50.281Z,43.89
2022-08-17T05:05:18.580Z,43.97
2022-08-17T05:07:46.300Z,43.88
2022-08-17T05:10:14.061Z,43.99
2022-08-17T05:12:41.797Z,43.97
2022-08-17T05:15:09.588Z,43.78
2022-08-17T05:17:37.497Z,43.83
2022-08-17T05:20:05.547Z,43.92
2022-08-17T05:22:33.293Z,43.73
2022-08-17T05:25:01.832Z,43.87
2022-08-17T05:27:35.308Z,43.89
2022-08-17T05:30:03.720Z,43.97
2022-08-17T05:32:39.007Z,43.68
2022-08-17T05:35:07.852Z,43.86
2022-08-17T05:37:35.622Z,43.93
2022-08-17T05:40:03.607Z,43.80
2022-08-17T05:42:31.378Z,43.87
2022-08-17T05:44:59.094Z,43.73
2022-08-17T05:47:26.815Z,43.72
2022-08-17T05:49:54.552Z,43.71
2022-08-17T05:52:22.504Z,43.67
2022-08-17T05:54:50.211Z,43.62
2022-08-17T05:57:17.958Z,43.65
2022-08-17T05:59:49.311Z,43.67
2022-08-17T06:02:17.057Z,43.45
2022-08-17T06:04:44.771Z,43.61
2022-08-17T06:07:12.442Z,43.48
2022-08-17T06:09:40.229Z,43.57
2022-08-17T06:12:07.977Z,43.37
2022-08-17T06:14:42.166Z,43.55
2022-08-17T06:17:10.111Z,43.34
2022-08-17T06:19:38.368Z,43.47
2022-08-17T06:22:06.561Z,43.28
2022-08-17T06:24:35.248Z,43.46
2022-08-17T06:27:02.982Z,42.94
2022-08-17T06:29:30.769Z,43.41
2022-08-17T06:31:58.592Z,43.55
2022-08-17T06:34:26.412Z,43.15
2022-08-17T06:36:54.093Z,43.38
2022-08-17T06:39:23.327Z,43.27
2022-08-17T06:41:51.893Z,43.25
2022-08-17T06:44:43.537Z,43.32
2022-08-17T06:47:07.308Z,43.31
2022-08-17T06:49:35.372Z,43.11
2022-08-17T06:52:03.139Z,43.14
2022-08-17T06:54:31.433Z,43.00
2022-08-17T06:56:59.608Z,42.89
2022-08-17T06:59:54.214Z,43.14
2022-08-17T07:02:15.040Z,43.13
2022-08-17T07:04:43.784Z,43.29
2022-08-17T07:07:25.713Z,43.03
2022-08-17T07:09:53.592Z,43.12
2022-08-17T07:12:22.306Z,43.05
2022-08-17T07:14:50.141Z,42.99
2022-08-17T07:17:18.603Z,43.13
2022-08-17T07:19:46.465Z,42.95
2022-08-17T07:22:14.628Z,43.20
2022-08-17T07:24:44.596Z,43.08
2022-08-17T07:27:12.314Z,42.93
2022-08-17T07:29:40.026Z,42.68
2022-08-17T07:32:07.710Z,42.92
2022-08-17T07:34:35.436Z,43.03
2022-08-17T07:37:03.475Z,43.15
2022-08-17T07:39:31.288Z,42.80
2022-08-17T07:41:59.393Z,42.58
2022-08-17T07:44:27.139Z,43.16
2022-08-17T07:47:12.668Z,43.01
2022-08-17T07:49:40.371Z,42.70
2022-08-17T07:52:47.388Z,43.04
2022-08-17T07:54:56.143Z,42.90
2022-08-17T07:57:29.872Z,42.94
2022-08-17T07:59:58.660Z,42.83
2022-08-17T08:02:31.658Z,42.81
2022-08-17T08:05:02.398Z,42.30
2022-08-17T08:07:31.879Z,42.74
2022-08-17T08:09:59.625Z,42.71
2022-08-17T08:12:33.698Z,42.67
2022-08-17T08:15:01.821Z,42.85
2022-08-17T08:17:30.682Z,42.63
2022-08-17T08:19:58.364Z,42.38
2022-08-17T08:22:27.269Z,42.53
2022-08-17T08:24:55.492Z,42.61
2022-08-17T08:27:47.897Z,42.70
2022-08-17T08:30:15.609Z,42.72
2022-08-17T08:32:48.065Z,42.69
2022-08-17T08:38:10.498Z,42.58
2022-08-17T08:40:41.213Z,42.70
2022-08-17T08:43:08.929Z,42.42
2022-08-17T08:45:38.203Z,42.56
2022-08-17T08:48:06.022Z,42.66
2022-08-17T08:50:50.783Z,42.40
2022-08-17T08:53:19.072Z,42.60
2022-08-17T08:55:46.836Z,42.56
2022-08-17T08:58:31.854Z,42.56
2022-08-17T09:01:02.340Z,42.60
2022-08-17T09:03:50.923Z,42.35
2022-08-17T09:06:32.483Z,42.47
2022-08-17T09:09:06.500Z,42.27
2022-08-17T09:11:35.691Z,42.35
2022-08-17T09:14:28.383Z,42.66
2022-08-17T09:16:56.278Z,42.36
2022-08-17T09:19:27.915Z,42.54
2022-08-17T09:21:55.607Z,42.20
2022-08-17T09:24:24.084Z,42.58
2022-08-17T09:26:51.827Z,42.26
2022-08-17T09:29:24.504Z,42.31
2022-08-17T09:31:52.651Z,42.51
2022-08-17T09:34:21.258Z,42.52
2022-08-17T09:36:56.032Z,42.33
2022-08-17T09:39:23.777Z,42.12
2022-08-17T09:41:51.683Z,42.43
2022-08-17T09:44:22.978Z,42.21
2022-08-17T09:46:51.660Z,42.31
2022-08-17T09:49:24.628Z,42.29
2022-08-17T09:51:53.117Z,42.26
2022-08-17T09:54:38.496Z,42.36
2022-08-17T09:57:28.517Z,42.03
2022-08-17T09:59:55.358Z,42.55
2022-08-17T10:02:23.619Z,42.33
2022-08-17T10:04:51.519Z,42.09
2022-08-17T10:07:19.218Z,42.15
2022-08-17T10:09:47.526Z,41.86
2022-08-17T10:12:20.207Z,42.06
2022-08-17T10:14:53.473Z,42.16
2022-08-17T10:17:22.965Z,42.08
2022-08-17T10:19:50.697Z,42.25
2022-08-17T10:22:37.947Z,41.61
2022-08-17T10:25:26.141Z,41.88
2022-08-17T10:28:01.258Z,42.03
2022-08-17T10:30:28.989Z,41.82
2022-08-17T10:32:56.741Z,41.53
2022-08-17T10:35:25.834Z,41.73
2022-08-17T10:37:53.654Z,41.58
2022-08-17T10:40:22.450Z,41.63
2022-08-17T10:42:50.614Z,41.22
2022-08-17T10:45:18.362Z,41.53
2022-08-17T10:47:55.158Z,41.50
2022-08-17T10:50:23.416Z,41.49
2022-08-17T10:52:51.132Z,41.70
2022-08-17T10:55:18.952Z,41.46
2022-08-17T10:57:46.744Z,41.85
2022-08-17T11:00:15.546Z,41.49
2022-08-17T11:02:45.818Z,41.87
2022-08-17T11:05:13.534Z,41.88
2022-08-17T11:07:43.958Z,42.07
2022-08-17T11:10:12.558Z,41.91
2022-08-17T11:12:48.500Z,41.97
2022-08-17T11:15:16.295Z,41.87
2022-08-17T11:17:44.193Z,41.98
2022-08-17T11:20:11.992Z,42.02
2022-08-17T11:22:39.730Z,42.14
2022-08-17T11:25:08.799Z,41.65
2022-08-17T11:27:36.523Z,41.71
2022-08-17T11:30:04.258Z,42.11
2022-08-17T11:32:32.018Z,41.86
2022-08-17T11:34:59.783Z,41.68
2022-08-17T11:37:27.593Z,41.94
2022-08-17T11:39:55.401Z,42.22
2022-08-17T11:42:25.534Z,41.83
2022-08-17T11:44:53.295Z,41.98
2022-08-17T11:47:38.775Z,41.65
2022-08-17T11:50:27.728Z,41.49
2022-08-17T11:52:55.970Z,41.33
2022-08-17T11:55:35.049Z,41.51
2022-08-17T11:58:04.402Z,41.23
2022-08-17T12:00:32.112Z,41.21
2022-08-17T12:02:59.870Z,41.34
2022-08-17T12:05:27.686Z,41.74
2022-08-17T12:07:55.484Z,41.49
2022-08-17T12:10:23.206Z,41.68
2022-08-17T12:12:50.921Z,41.63
2022-08-17T12:15:18.626Z,41.62
2022-08-17T12:17:46.679Z,41.35
2022-08-17T12:20:15.132Z,41.50
2022-08-17T12:22:43.080Z,41.49
2022-08-17T12:25:11.070Z,41.34
2022-08-17T12:28:04.221Z,41.50
2022-08-17T12:30:26.549Z,41.20
2022-08-17T12:32:54.308Z,41.64
2022-08-17T12:35:22.085Z,41.19
2022-08-17T12:37:50.269Z,40.98
2022-08-17T12:40:18.214Z,41.27
2022-08-17T12:42:46.071Z,41.74
2022-08-17T12:45:13.811Z,41.42
2022-08-17T12:47:41.510Z,41.08
2022-08-17T12:50:28.723Z,40.94
2022-08-17T12:53:01.784Z,41.36
2022-08-17T12:55:32.486Z,41.40
2022-08-17T12:58:01.741Z,41.40
2022-08-17T13:00:29.983Z,41.35
2022-08-17T13:02:57.707Z,41.41
2022-08-17T13:05:25.416Z,41.51
2022-08-17T13:07:54.652Z,41.67
2022-08-17T13:10:22.651Z,41.68
2022-08-17T13:12:51.090Z,41.64
2022-08-17T13:15:18.860Z,41.59
2022-08-17T13:17:46.622Z,41.57
2022-08-17T13:20:14.701Z,41.71
2022-08-17T13:22:43.409Z,41.45
2022-08-17T13:25:14.840Z,41.29
2022-08-17T13:27:42.580Z,41.32
2022-08-17T13:30:11.259Z,41.36
2022-08-17T13:32:41.277Z,41.05
2022-08-17T13:35:28.289Z,41.27
2022-08-17T13:37:56.269Z,40.66
2022-08-17T13:40:24.023Z,40.73
2022-08-17T13:42:54.070Z,41.10
2022-08-17T13:45:22.370Z,41.20
2022-08-17T13:48:03.577Z,41.15
2022-08-17T13:50:31.290Z,41.42
2022-08-17T13:52:59.038Z,41.46
2022-08-17T13:55:26.948Z,41.30
2022-08-17T13:58:06.591Z,41.40
2022-08-17T14:00:36.351Z,41.29
2022-08-17T14:03:04.267Z,41.57
2022-08-17T14:05:32.068Z,41.53
2022-08-17T14:08:00.208Z,41.40
2022-08-17T14:10:27.962Z,41.53
2022-08-17T14:12:55.667Z,41.55
2022-08-17T14:15:23.490Z,41.29
2022-08-17T14:18:11.173Z,41.56
2022-08-17T14:20:39.648Z,41.48
2022-08-17T14:23:08.443Z,41.61
2022-08-17T14:25:36.167Z,41.39
2022-08-17T14:28:07.815Z,41.57
2022-08-17T14:30:35.597Z,41.61
2022-08-17T14:33:03.363Z,41.79
2022-08-17T14:35:31.127Z,41.45
2022-08-17T14:37:58.879Z,41.64
2022-08-17T14:40:27.274Z,41.65
2022-08-17T14:42:55.236Z,41.84
2022-08-17T14:45:32.136Z,41.68
2022-08-17T14:48:01.122Z,41.58
2022-08-17T14:50:28.837Z,41.79
2022-08-17T14:52:58.160Z,41.50
2022-08-17T14:55:27.014Z,41.62
2022-08-17T14:57:54.870Z,41.98
2022-08-17T15:00:22.659Z,41.73
2022-08-17T15:02:53.668Z,41.83
2022-08-17T15:05:21.435Z,41.74
2022-08-17T15:07:49.795Z,41.88
2022-08-17T15:10:17.605Z,41.68
2022-08-17T15:12:45.541Z,41.77
2022-08-17T15:15:13.281Z,41.99
2022-08-17T15:17:54.677Z,41.61
2022-08-17T15:20:22.968Z,41.74
2022-08-17T15:22:50.771Z,41.81
2022-08-17T15:25:18.953Z,41.36
2022-08-17T15:27:47.413Z,41.62
2022-08-17T15:30:15.544Z,42.05
2022-08-17T15:32:45.823Z,41.71
2022-08-17T15:35:19.246Z,41.59
2022-08-17T15:37:54.929Z,41.82
2022-08-17T15:40:22.647Z,41.63
2022-08-17T15:42:50.471Z,41.66
2022-08-17T15:45:18.185Z,41.68
2022-08-17T15:47:46.630Z,41.65
2022-08-17T15:50:14.466Z,41.98
2022-08-17T15:52:44.869Z,41.80
2022-08-17T15:55:12.607Z,41.88
2022-08-17T15:57:40.390Z,41.82
2022-08-17T16:00:08.555Z,42.00
2022-08-17T16:03:14.736Z,41.61
2022-08-17T16:05:24.946Z,42.06
2022-08-17T16:07:53.250Z,41.90
2022-08-17T16:10:21.362Z,41.75
2022-08-17T16:12:49.091Z,41.68
2022-08-17T16:15:16.878Z,41.86
2022-08-17T16:17:44.598Z,41.88
2022-08-17T16:20:19.751Z,41.64
2022-08-17T16:22:48.713Z,41.87
2022-08-17T16:25:16.739Z,41.83
2022-08-17T16:27:44.775Z,41.84
2022-08-17T16:30:16.907Z,42.09
2022-08-17T16:32:45.502Z,42.24
2022-08-17T16:35:16.249Z,42.07
2022-08-17T16:37:44.648Z,42.15
2022-08-17T16:40:13.601Z,42.11
2022-08-17T16:42:43.172Z,42.42
2022-08-17T16:45:11.085Z,42.00
2022-08-17T16:47:38.970Z,41.83
2022-08-17T16:50:07.079Z,42.08
2022-08-17T16:52:35.126Z,41.82
2022-08-17T16:55:02.923Z,41.88
2022-08-17T16:57:30.821Z,41.78
2022-08-17T16:59:58.601Z,42.00
2022-08-17T17:02:26.349Z,42.04
2022-08-17T17:04:54.081Z,41.70
2022-08-17T17:07:21.782Z,41.80
2022-08-17T17:09:52.669Z,42.04
2022-08-17T17:12:58.202Z,42.17
2022-08-17T17:15:08.432Z,41.86
2022-08-17T17:17:36.599Z,41.70
2022-08-17T17:20:04.379Z,41.90
2022-08-17T17:22:32.749Z,42.05
2022-08-17T17:25:00.498Z,41.83
2022-08-17T17:27:29.564Z,41.79
2022-08-17T17:29:57.320Z,42.11
2022-08-17T17:32:25.027Z,41.87
2022-08-17T17:34:52.810Z,42.00
2022-08-17T17:37:20.609Z,41.93
2022-08-17T17:39:48.996Z,41.88
2022-08-17T17:42:20.271Z,41.91
2022-08-17T17:44:48.084Z,41.70
2022-08-17T17:47:17.093Z,41.74
2022-08-17T17:49:45.198Z,41.70
2022-08-17T17:52:18.437Z,41.98
2022-08-17T17:54:47.157Z,41.69
2022-08-17T17:57:15.285Z,41.79
2022-08-17T17:59:44.269Z,41.89
2022-08-17T18:02:12.164Z,41.81
2022-08-17T18:04:41.388Z,41.56
2022-08-17T18:07:10.071Z,41.84
2022-08-17T18:09:39.045Z,42.06
2022-08-17T18:12:08.864Z,41.98
2022-08-17T18:14:37.025Z,41.86
2022-08-17T18:17:04.780Z,41.77
2022-08-17T18:19:32.567Z,41.63
2022-08-17T18:22:00.835Z,41.77
2022-08-17T18:24:28.599Z,41.69
2022-08-17T18:26:56.356Z,41.75
2022-08-17T18:29:24.309Z,41.90
2022-08-17T18:31:52.599Z,42.00
2022-08-17T18:34:43.876Z,41.91
2022-08-17T18:37:10.424Z,41.90
2022-08-17T18:39:38.573Z,41.90
2022-08-17T18:42:06.893Z,41.60
2022-08-17T18:44:41.053Z,42.00
2022-08-17T18:47:08.802Z,42.01
2022-08-17T18:49:36.505Z,42.04
2022-08-17T18:52:04.357Z,41.72
2022-08-17T18:54:32.365Z,41.93
2022-08-17T18:57:00.228Z,41.77
2022-08-17T18:59:28.045Z,41.91
2022-08-17T19:01:58.194Z,41.96
2022-08-17T19:04:27.079Z,41.88
2022-08-17T19:07:00.576Z,41.90
2022-08-17T19:09:28.535Z,41.76
2022-08-17T19:11:56.234Z,42.26
2022-08-17T19:14:25.913Z,41.86
2022-08-17T19:16:53.596Z,41.85
2022-08-17T19:19:21.374Z,41.88
2022-08-17T19:21:49.128Z,42.12
2022-08-17T19:24:19.759Z,42.16
2022-08-17T19:26:54.708Z,42.11
2022-08-17T19:29:24.100Z,42.17
2022-08-17T19:31:52.916Z,42.33
2022-08-17T19:34:33.215Z,42.18
2022-08-17T19:37:01.902Z,42.15
2022-08-17T19:39:38.237Z,42.05
2022-08-17T19:42:06.482Z,42.16
2022-08-17T19:44:34.297Z,42.40
2022-08-17T19:47:02.028Z,42.30
2022-08-17T19:49:41.130Z,42.52
2022-08-17T19:52:10.196Z,42.30
2022-08-17T19:54:38.082Z,42.41
2022-08-17T19:57:05.914Z,42.24
2022-08-17T19:59:36.036Z,42.03
2022-08-17T20:02:04.185Z,42.31
2022-08-17T20:04:32.591Z,42.47
2022-08-17T20:07:00.707Z,42.13
2022-08-17T20:09:29.765Z,42.29
2022-08-17T20:12:01.686Z,41.98
2022-08-17T20:14:29.858Z,42.32
2022-08-17T20:17:02.356Z,42.27
2022-08-17T20:19:30.591Z,42.33
2022-08-17T20:21:58.512Z,42.28
2022-08-17T20:24:26.495Z,42.18
2022-08-17T20:26:57.923Z,42.32
2022-08-17T20:29:37.194Z,42.33
2022-08-17T20:32:08.501Z,42.18
2022-08-17T20:34:37.532Z,42.26
2022-08-17T20:37:05.977Z,42.22
2022-08-17T20:39:37.989Z,42.19
2022-08-17T20:42:06.005Z,42.26
2022-08-17T20:44:33.761Z,42.32
2022-08-17T20:47:01.472Z,42.37
2022-08-17T20:49:29.393Z,42.07
2022-08-17T20:52:00.894Z,42.25
2022-08-17T20:54:30.289Z,42.14
2022-08-17T20:56:58.090Z,42.10
2022-08-17T20:59:27.597Z,42.15
2022-08-17T21:01:55.480Z,42.36
2022-08-17T21:04:23.208Z,42.27
2022-08-17T21:06:50.931Z,42.33
2022-08-17T21:09:18.638Z,42.23
2022-08-17T21:12:03.049Z,42.13
2022-08-17T21:14:33.259Z,42.24
2022-08-17T21:17:01.304Z,42.31
2022-08-17T21:19:31.253Z,42.33
2022-08-17T21:21:59.140Z,42.15
2022-08-17T21:24:27.194Z,42.14
2022-08-17T21:26:55.438Z,42.19
2022-08-17T21:29:31.545Z,42.45
2022-08-17T21:32:00.769Z,42.29
2022-08-17T21:34:28.559Z,42.14
2022-08-17T21:36:56.963Z,42.31
2022-08-17T21:39:28.309Z,42.30
2022-08-17T21:42:00.899Z,42.36
2022-08-17T21:44:31.157Z,42.15
2022-08-17T21:46:59.088Z,42.18
2022-08-17T21:49:26.890Z,42.17
2022-08-17T21:51:54.858Z,42.17
2022-08-17T21:54:22.579Z,42.29
2022-08-17T21:56:50.307Z,42.38
2022-08-17T21:59:19.461Z,42.26
2022-08-17T22:01:50.636Z,42.17
2022-08-17T22:04:18.460Z,42.36
2022-08-17T22:06:56.699Z,42.36
2022-08-17T22:09:25.844Z,42.23
2022-08-17T22:11:53.732Z,42.41
2022-08-17T22:14:22.886Z,42.20
2022-08-17T22:16:50.857Z,42.31
2022-08-17T22:19:19.093Z,42.30
2022-08-17T22:21:46.834Z,42.30
2022-08-17T22:24:14.600Z,42.35
2022-08-17T22:26:42.273Z,42.22
2022-08-17T22:29:10.071Z,42.20
2022-08-17T22:31:37.862Z,42.29
2022-08-17T22:34:05.568Z,42.22
2022-08-17T22:36:35.516Z,42.35
2022-08-17T22:39:03.263Z,42.31
2022-08-17T22:41:32.199Z,42.26
2022-08-17T22:44:02.392Z,42.44
2022-08-17T22:46:30.442Z,42.30
2022-08-17T22:48:59.334Z,42.35
2022-08-17T22:51:27.113Z,42.19
2022-08-17T22:54:12.393Z,42.20
2022-08-17T22:56:57.829Z,42.49
2022-08-17T22:59:27.443Z,42.32
2022-08-17T23:01:55.135Z,42.36
2022-08-17T23:04:23.630Z,42.30
2022-08-17T23:06:51.335Z,42.34
2022-08-17T23:09:19.176Z,42.33
2022-08-17T23:11:49.883Z,42.42
2022-08-17T23:14:19.201Z,42.39
2022-08-17T23:16:47.002Z,42.29
2022-08-17T23:19:15.414Z,42.42
2022-08-17T23:21:44.821Z,42.41
2022-08-17T23:24:13.521Z,42.22
2022-08-17T23:26:41.242Z,42.25
2022-08-17T23:29:08.981Z,42.46
2022-08-17T23:31:37.164Z,42.34
2022-08-17T23:34:04.906Z,42.50
2022-08-17T23:36:35.476Z,42.48
2022-08-17T23:39:03.199Z,42.36
2022-08-17T23:41:31.618Z,42.39
2022-08-17T23:43:59.374Z,42.32
2022-08-17T23:46:27.207Z,42.55
2022-08-17T23:48:54.924Z,42.45
2022-08-17T23:51:22.651Z,42.60
2022-08-17T23:53:50.392Z,42.53
2022-08-17T23:56:23.794Z,42.52
2022-08-17T23:58:51.672Z,42.49
